Time;durP1;ratioP1;P1;durP2;ratioP2;P2;SDS_P1;SDS_P2;PMS_P1;PMS_P2;Temp;Humidity;BMP_temperature;BMP_pressure;BME280_temperature;BME280_humidity;BME280_pressure;Samples;Min_cycle;Max_cycle;Signal;HPM_P1;HPM_P2
2021/08/29 00:00:33;;;;;;;;;;;18.20;99.90;;;;;;5009047;28;20038;-71
2021/08/29 00:02:58;;;;;;;;;;;18.10;99.90;;;;;;5012265;28;19905;-71
2021/08/29 00:05:24;;;;;;;;;;;18.20;99.90;;;;;;5006582;28;19913;-70
2021/08/29 00:07:49;;;;;;;;;;;18.20;99.90;;;;;;5008497;28;19915;-71
2021/08/29 00:10:15;;;;;;;;;;;18.10;99.90;;;;;;5025217;28;19909;-71
2021/08/29 00:12:41;;;;;;;;;;;18.00;99.90;;;;;;5007454;28;19956;-70
2021/08/29 00:15:07;;;;;;;;;;;18.10;99.90;;;;;;5009620;28;20421;-71
2021/08/29 00:17:33;;;;;;;;;;;18.10;99.90;;;;;;5007830;28;19909;-70
2021/08/29 00:19:58;;;;;;;;;;;18.10;99.90;;;;;;5008280;28;19914;-71
2021/08/29 00:22:24;;;;;;;;;;;18.00;99.90;;;;;;5009267;28;19936;-70
2021/08/29 00:24:50;;;;;;;;;;;18.00;99.90;;;;;;5008512;28;19916;-70
2021/08/29 00:27:15;;;;;;;;;;;17.90;99.90;;;;;;5007281;28;19972;-71
2021/08/29 00:29:41;;;;;;;;;;;18.10;99.90;;;;;;5009863;28;19991;-70
2021/08/29 00:32:06;;;;;;;;;;;18.10;99.90;;;;;;5011890;28;19906;-71
2021/08/29 00:34:32;;;;;;;;;;;18.00;99.90;;;;;;5018507;28;19909;-70
2021/08/29 00:36:57;;;;;;;;;;;17.90;99.90;;;;;;5019135;28;19912;-70
2021/08/29 00:39:23;;;;;;;;;;;17.90;99.90;;;;;;5016544;28;19909;-70
2021/08/29 00:41:49;;;;;;;;;;;17.80;99.90;;;;;;5010895;28;20347;-70
2021/08/29 00:44:14;;;;;;;;;;;18.00;99.90;;;;;;5010606;28;19920;-71
2021/08/29 00:46:41;;;;;;;;;;;18.00;99.90;;;;;;5008592;28;19914;-70
2021/08/29 00:49:09;;;;;;;;;;;17.90;99.90;;;;;;5009617;28;19910;-70
2021/08/29 00:51:34;;;;;;;;;;;17.90;99.90;;;;;;5010034;28;19916;-70
2021/08/29 00:54:00;;;;;;;;;;;17.90;99.90;;;;;;5009092;28;19917;-70
2021/08/29 00:56:27;;;;;;;;;;;17.90;99.90;;;;;;5009594;28;19948;-70
2021/08/29 00:58:53;;;;;;;;;;;17.80;99.90;;;;;;5009352;28;19917;-69
2021/08/29 01:01:20;;;;;;;;;;;17.80;99.90;;;;;;5008668;28;19923;-70
2021/08/29 01:03:47;;;;;;;;;;;17.80;99.90;;;;;;5009516;28;19964;-70
2021/08/29 01:06:16;;;;;;;;;;;17.80;99.90;;;;;;5003570;28;20012;-70
2021/08/29 01:08:42;;;;;;;;;;;17.90;99.90;;;;;;5008824;28;19968;-70
2021/08/29 01:11:27;;;;;;;;;;;17.80;99.90;;;;;;5006949;28;20325;-70
2021/08/29 01:14:04;;;;;;;;;;;17.70;99.90;;;;;;5019657;28;19918;-70
2021/08/29 01:16:32;;;;;;;;;;;17.70;99.90;;;;;;5008095;28;19975;-70
2021/08/29 01:18:59;;;;;;;;;;;17.70;99.90;;;;;;5009829;28;19936;-70
2021/08/29 01:21:29;;;;;;;;;;;17.70;99.90;;;;;;5009136;28;19913;-70
2021/08/29 01:23:58;;;;;;;;;;;17.60;99.90;;;;;;5006192;28;20004;-70
2021/08/29 01:26:30;;;;;;;;;;;17.70;99.90;;;;;;5007848;28;19917;-70
2021/08/29 01:28:57;;;;;;;;;;;17.70;99.90;;;;;;5007399;28;19964;-70
2021/08/29 01:31:24;;;;;;;;;;;17.70;99.90;;;;;;5007900;28;19949;-70
2021/08/29 01:33:50;;;;;;;;;;;17.60;99.90;;;;;;5008796;28;19909;-70
2021/08/29 01:36:16;;;;;;;;;;;17.60;99.90;;;;;;5007660;28;20398;-70
2021/08/29 01:38:42;;;;;;;;;;;17.70;99.90;;;;;;5008116;28;19910;-70
2021/08/29 01:41:09;;;;;;;;;;;17.70;99.90;;;;;;5009025;28;19914;-70
2021/08/29 01:43:35;;;;;;;;;;;17.60;99.90;;;;;;5003664;28;19913;-70
2021/08/29 01:46:01;;;;;;;;;;;17.40;99.90;;;;;;5006578;28;19925;-70
2021/08/29 01:48:27;;;;;;;;;;;17.40;99.90;;;;;;5009186;28;19913;-70
2021/08/29 01:50:53;;;;;;;;;;;17.40;99.90;;;;;;5007545;28;19924;-70
2021/08/29 01:53:18;;;;;;;;;;;17.50;99.90;;;;;;5009744;28;19917;-70
2021/08/29 01:55:44;;;;;;;;;;;17.60;99.90;;;;;;5009534;28;19917;-71
2021/08/29 01:58:09;;;;;;;;;;;17.60;99.90;;;;;;5012011;28;19921;-69
2021/08/29 02:00:45;;;;;;;;;;;17.60;99.90;;;;;;5009496;28;19917;-69
2021/08/29 02:03:11;;;;;;;;;;;17.60;99.90;;;;;;5011075;28;19921;-69
2021/08/29 02:05:38;;;;;;;;;;;17.50;99.90;;;;;;5011366;28;19917;-70
2021/08/29 02:08:04;;;;;;;;;;;17.50;99.90;;;;;;5011722;28;19919;-70
2021/08/29 02:10:30;;;;;;;;;;;17.40;99.90;;;;;;5011155;28;19917;-70
2021/08/29 02:12:59;;;;;;;;;;;17.40;99.90;;;;;;5012231;28;20389;-70
2021/08/29 02:15:29;;;;;;;;;;;17.50;99.90;;;;;;5009657;28;19909;-70
2021/08/29 02:17:55;;;;;;;;;;;17.50;99.90;;;;;;5009599;28;19925;-70
2021/08/29 02:20:23;;;;;;;;;;;17.50;99.90;;;;;;5011415;28;20445;-69
2021/08/29 02:22:49;;;;;;;;;;;17.60;99.90;;;;;;5011380;28;19913;-69
2021/08/29 02:25:15;;;;;;;;;;;17.60;99.90;;;;;;5012913;28;19920;-70
2021/08/29 02:27:41;;;;;;;;;;;17.50;99.90;;;;;;5010373;28;19960;-70
2021/08/29 02:30:08;;;;;;;;;;;17.50;99.90;;;;;;5012938;28;20018;-69
2021/08/29 02:32:40;;;;;;;;;;;17.60;99.90;;;;;;5010814;28;19929;-70
2021/08/29 02:35:06;;;;;;;;;;;17.50;99.90;;;;;;5012748;28;19960;-69
2021/08/29 02:37:33;;;;;;;;;;;17.50;99.90;;;;;;5010998;28;19909;-70
2021/08/29 02:39:59;;;;;;;;;;;17.50;99.90;;;;;;5011285;28;19917;-71
2021/08/29 02:42:28;;;;;;;;;;;17.50;99.90;;;;;;5010805;28;19913;-69
2021/08/29 02:44:54;;;;;;;;;;;17.50;99.90;;;;;;5009049;28;19944;-70
2021/08/29 02:47:20;;;;;;;;;;;17.40;99.90;;;;;;5010222;28;20336;-69
2021/08/29 02:49:47;;;;;;;;;;;17.30;99.90;;;;;;5028300;28;19909;-70
2021/08/29 02:52:12;;;;;;;;;;;17.30;99.90;;;;;;5010738;28;19906;-70
2021/08/29 02:54:40;;;;;;;;;;;17.30;99.90;;;;;;5011415;28;19916;-70
2021/08/29 02:57:06;;;;;;;;;;;17.30;99.90;;;;;;5011069;28;20373;-70
2021/08/29 02:59:32;;;;;;;;;;;17.30;99.90;;;;;;5012547;28;20261;-70
2021/08/29 03:01:58;;;;;;;;;;;17.40;99.90;;;;;;5005352;28;19972;-70
2021/08/29 03:04:23;;;;;;;;;;;17.50;99.90;;;;;;5010665;28;19941;-70
2021/08/29 03:06:49;;;;;;;;;;;17.50;99.90;;;;;;5009856;28;19917;-70
2021/08/29 03:09:15;;;;;;;;;;;17.50;99.90;;;;;;5009378;28;19909;-70
2021/08/29 03:11:40;;;;;;;;;;;17.60;99.90;;;;;;5011742;28;19909;-70
2021/08/29 03:14:06;;;;;;;;;;;17.60;99.90;;;;;;5011677;28;19913;-70
2021/08/29 03:16:32;;;;;;;;;;;17.70;99.90;;;;;;5011398;28;19975;-70
2021/08/29 03:18:59;;;;;;;;;;;17.70;99.90;;;;;;5011358;28;19905;-70
2021/08/29 03:21:25;;;;;;;;;;;17.70;99.90;;;;;;5006171;28;20005;-70
2021/08/29 03:23:50;;;;;;;;;;;17.70;99.90;;;;;;5004235;28;19969;-70
2021/08/29 03:26:16;;;;;;;;;;;17.70;99.90;;;;;;5010513;28;20455;-70
2021/08/29 03:28:42;;;;;;;;;;;17.70;99.90;;;;;;5008795;28;19910;-70
2021/08/29 03:31:07;;;;;;;;;;;17.70;99.90;;;;;;5011434;28;19905;-70
2021/08/29 03:33:34;;;;;;;;;;;17.80;99.90;;;;;;5010586;28;20268;-70
2021/08/29 03:36:00;;;;;;;;;;;17.70;99.90;;;;;;5003415;28;19909;-70
2021/08/29 03:38:28;;;;;;;;;;;17.70;99.90;;;;;;5008929;28;20001;-70
2021/08/29 03:40:54;;;;;;;;;;;17.70;99.90;;;;;;5010934;28;20444;-70
2021/08/29 03:43:19;;;;;;;;;;;17.70;99.90;;;;;;5010366;28;19916;-70
2021/08/29 03:45:45;;;;;;;;;;;17.80;99.90;;;;;;5007736;28;19974;-70
2021/08/29 03:48:11;;;;;;;;;;;17.80;99.90;;;;;;5009525;28;20269;-70
2021/08/29 03:50:37;;;;;;;;;;;17.80;99.90;;;;;;5011474;28;19910;-69
2021/08/29 03:53:03;;;;;;;;;;;17.80;99.90;;;;;;5009252;28;19949;-71
2021/08/29 03:55:28;;;;;;;;;;;17.70;99.90;;;;;;5012363;28;19917;-70
2021/08/29 03:57:55;;;;;;;;;;;17.70;99.90;;;;;;5009275;28;19905;-70
2021/08/29 04:00:21;;;;;;;;;;;17.60;99.90;;;;;;5008962;28;20118;-69
2021/08/29 04:02:46;;;;;;;;;;;17.60;99.90;;;;;;5011800;28;19916;-70
2021/08/29 04:05:12;;;;;;;;;;;17.70;99.90;;;;;;5024353;28;19910;-70
2021/08/29 04:07:38;;;;;;;;;;;17.70;99.90;;;;;;5008965;28;19909;-71
2021/08/29 04:10:04;;;;;;;;;;;17.60;99.90;;;;;;5008538;28;19996;-70
2021/08/29 04:12:30;;;;;;;;;;;17.70;99.90;;;;;;5005131;28;19928;-70
2021/08/29 04:14:56;;;;;;;;;;;17.60;99.90;;;;;;5010842;28;19905;-71
2021/08/29 04:17:23;;;;;;;;;;;17.60;99.90;;;;;;5002746;28;19910;-71
2021/08/29 04:19:50;;;;;;;;;;;17.60;99.90;;;;;;5010696;28;19916;-70
2021/08/29 04:22:15;;;;;;;;;;;17.70;99.90;;;;;;5006374;28;20343;-71
2021/08/29 04:24:41;;;;;;;;;;;17.70;99.90;;;;;;5009981;28;19951;-71
2021/08/29 04:27:07;;;;;;;;;;;17.70;99.90;;;;;;5007831;28;19905;-70
2021/08/29 04:29:33;;;;;;;;;;;17.70;99.90;;;;;;5009918;28;19916;-70
2021/08/29 04:31:59;;;;;;;;;;;17.80;99.90;;;;;;5002415;28;20011;-70
2021/08/29 04:34:25;;;;;;;;;;;17.80;99.90;;;;;;5008551;28;20387;-70
2021/08/29 04:36:50;;;;;;;;;;;17.80;99.90;;;;;;5016362;28;19920;-70
2021/08/29 04:39:16;;;;;;;;;;;17.70;99.90;;;;;;5001501;28;19910;-69
2021/08/29 04:41:41;;;;;;;;;;;17.70;99.90;;;;;;5008579;28;19920;-70
2021/08/29 04:44:10;;;;;;;;;;;17.70;99.90;;;;;;5009828;28;19971;-71
2021/08/29 04:46:36;;;;;;;;;;;17.60;99.90;;;;;;5009442;28;19921;-70
2021/08/29 04:49:01;;;;;;;;;;;17.60;99.90;;;;;;5015335;28;19910;-70
2021/08/29 04:51:28;;;;;;;;;;;17.60;99.90;;;;;;5018295;28;19928;-71
2021/08/29 04:53:54;;;;;;;;;;;17.60;99.90;;;;;;5007461;28;20379;-71
2021/08/29 04:56:19;;;;;;;;;;;17.60;99.90;;;;;;5008016;28;19909;-69
2021/08/29 04:58:45;;;;;;;;;;;17.70;99.90;;;;;;5010643;28;19913;-71
2021/08/29 05:01:11;;;;;;;;;;;17.70;99.90;;;;;;5006592;28;20004;-71
2021/08/29 05:03:36;;;;;;;;;;;17.60;99.90;;;;;;5007876;28;19993;-70
2021/08/29 05:06:02;;;;;;;;;;;17.60;99.90;;;;;;5008332;28;19996;-70
2021/08/29 05:08:27;;;;;;;;;;;17.60;99.90;;;;;;5006208;28;19929;-70
2021/08/29 05:10:53;;;;;;;;;;;17.70;99.90;;;;;;5009671;28;19936;-70
2021/08/29 05:13:19;;;;;;;;;;;17.70;99.90;;;;;;5009457;28;19944;-71
2021/08/29 05:15:44;;;;;;;;;;;17.70;99.90;;;;;;5008167;28;19957;-70
2021/08/29 05:18:10;;;;;;;;;;;17.70;99.90;;;;;;5008952;28;20376;-70
2021/08/29 05:20:35;;;;;;;;;;;17.80;99.90;;;;;;5008313;28;19921;-71
2021/08/29 05:23:01;;;;;;;;;;;17.70;99.90;;;;;;5011409;28;19999;-70
2021/08/29 05:25:27;;;;;;;;;;;17.70;99.90;;;;;;5025162;28;20363;-68
2021/08/29 05:27:53;;;;;;;;;;;17.70;99.90;;;;;;5006525;28;20367;-70
2021/08/29 05:30:18;;;;;;;;;;;17.80;99.90;;;;;;5012033;28;19965;-70
2021/08/29 05:32:44;;;;;;;;;;;17.80;99.90;;;;;;5013316;28;19910;-70
2021/08/29 05:35:10;;;;;;;;;;;17.90;99.90;;;;;;5011553;28;19940;-70
2021/08/29 05:37:35;;;;;;;;;;;17.90;99.90;;;;;;5012457;28;19920;-70
2021/08/29 05:40:01;;;;;;;;;;;17.90;99.90;;;;;;5012190;28;19996;-70
2021/08/29 05:42:27;;;;;;;;;;;17.80;99.90;;;;;;5013900;28;19967;-70
2021/08/29 05:44:52;;;;;;;;;;;17.90;99.90;;;;;;5014306;28;19913;-69
2021/08/29 05:47:18;;;;;;;;;;;18.00;99.90;;;;;;5010262;28;20013;-69
2021/08/29 05:49:44;;;;;;;;;;;18.20;99.90;;;;;;5012872;28;19916;-70
2021/08/29 05:52:10;;;;;;;;;;;18.20;99.90;;;;;;5013851;28;19910;-70
2021/08/29 05:54:35;;;;;;;;;;;18.20;99.90;;;;;;5012648;28;19968;-70
2021/08/29 05:57:01;;;;;;;;;;;18.10;99.90;;;;;;5013830;28;20422;-72
2021/08/29 05:59:26;;;;;;;;;;;18.10;99.90;;;;;;5011543;28;19992;-70
2021/08/29 06:01:52;;;;;;;;;;;18.00;99.90;;;;;;5012651;28;19928;-70
2021/08/29 06:04:17;;;;;;;;;;;18.10;99.90;;;;;;5013590;28;19909;-72
2021/08/29 06:06:43;;;;;;;;;;;18.10;99.90;;;;;;5014094;28;19909;-71
2021/08/29 06:09:09;;;;;;;;;;;18.20;99.90;;;;;;5009847;28;20360;-69
2021/08/29 06:11:34;;;;;;;;;;;18.20;99.90;;;;;;5026005;28;20431;-71
2021/08/29 06:14:00;;;;;;;;;;;18.10;99.90;;;;;;5011551;28;19909;-71
2021/08/29 06:16:25;;;;;;;;;;;18.20;99.90;;;;;;5010281;28;19916;-71
2021/08/29 06:18:51;;;;;;;;;;;18.20;99.90;;;;;;5006885;28;19913;-71
2021/08/29 06:21:17;;;;;;;;;;;18.20;99.90;;;;;;5008960;28;19913;-71
2021/08/29 06:23:42;;;;;;;;;;;18.20;99.90;;;;;;5012528;28;19913;-71
2021/08/29 06:26:08;;;;;;;;;;;18.30;99.90;;;;;;5012311;28;19910;-71
2021/08/29 06:28:34;;;;;;;;;;;18.30;99.90;;;;;;5011273;28;19995;-72
2021/08/29 06:30:59;;;;;;;;;;;18.50;99.90;;;;;;5010921;28;20562;-71
2021/08/29 06:33:25;;;;;;;;;;;18.60;99.90;;;;;;5012613;28;19910;-71
2021/08/29 06:35:50;;;;;;;;;;;18.50;99.90;;;;;;5010428;28;19913;-71
2021/08/29 06:38:17;;;;;;;;;;;18.60;99.90;;;;;;5014773;28;19945;-72
2021/08/29 06:40:43;;;;;;;;;;;18.50;99.90;;;;;;5009777;28;19940;-70
2021/08/29 06:43:14;;;;;;;;;;;18.60;99.90;;;;;;5013613;28;19909;-71
2021/08/29 06:45:43;;;;;;;;;;;18.70;99.90;;;;;;5009704;28;19939;-72
2021/08/29 06:48:08;;;;;;;;;;;18.70;99.90;;;;;;5009265;28;20000;-71
2021/08/29 06:50:34;;;;;;;;;;;18.70;99.90;;;;;;5009597;28;20001;-71
2021/08/29 06:53:00;;;;;;;;;;;18.70;99.90;;;;;;5011461;28;19910;-72
2021/08/29 06:55:25;;;;;;;;;;;18.80;99.90;;;;;;5012405;28;19916;-71
2021/08/29 06:57:51;;;;;;;;;;;18.90;99.90;;;;;;5012413;28;20387;-72
2021/08/29 07:00:17;;;;;;;;;;;19.00;99.90;;;;;;5009341;28;19917;-70
2021/08/29 07:02:42;;;;;;;;;;;19.00;99.90;;;;;;5009530;28;20379;-71
2021/08/29 07:05:08;;;;;;;;;;;19.00;99.90;;;;;;5010906;28;19913;-72
2021/08/29 07:07:34;;;;;;;;;;;19.20;99.90;;;;;;5008939;28;20413;-70
2021/08/29 07:09:59;;;;;;;;;;;19.20;99.90;;;;;;5009982;28;19920;-72
2021/08/29 07:12:25;;;;;;;;;;;19.10;99.90;;;;;;5008833;28;19909;-70
2021/08/29 07:14:51;;;;;;;;;;;19.10;99.90;;;;;;5026277;28;20003;-69
2021/08/29 07:17:18;;;;;;;;;;;19.20;99.90;;;;;;5011129;28;20369;-69
2021/08/29 07:19:44;;;;;;;;;;;19.30;99.90;;;;;;5010436;28;19951;-69
2021/08/29 07:22:10;;;;;;;;;;;19.30;99.90;;;;;;5010204;28;19917;-68
2021/08/29 07:24:35;;;;;;;;;;;19.40;99.90;;;;;;5010194;28;19913;-69
2021/08/29 07:27:01;;;;;;;;;;;19.60;99.90;;;;;;5010937;28;20393;-70
2021/08/29 07:29:27;;;;;;;;;;;19.70;99.90;;;;;;5007048;28;19909;-69
2021/08/29 07:31:52;;;;;;;;;;;19.70;99.90;;;;;;5012319;28;19956;-68
2021/08/29 07:34:18;;;;;;;;;;;19.80;99.90;;;;;;5007904;28;20456;-69
2021/08/29 07:36:43;;;;;;;;;;;19.90;99.90;;;;;;5005615;28;19909;-69
2021/08/29 07:39:09;;;;;;;;;;;20.00;99.90;;;;;;5010604;28;19909;-68
2021/08/29 07:41:34;;;;;;;;;;;20.00;99.90;;;;;;5007241;28;19913;-70
2021/08/29 07:44:00;;;;;;;;;;;19.90;99.90;;;;;;5005509;28;19914;-68
2021/08/29 07:46:28;;;;;;;;;;;20.10;99.90;;;;;;5009988;28;19916;-71
2021/08/29 07:48:54;;;;;;;;;;;20.20;99.90;;;;;;5006023;28;19987;-68
2021/08/29 07:51:23;;;;;;;;;;;20.30;99.90;;;;;;5010618;28;20388;-70
2021/08/29 07:53:49;;;;;;;;;;;20.40;99.90;;;;;;5010170;28;19910;-70
2021/08/29 07:56:15;;;;;;;;;;;20.40;99.90;;;;;;5010195;28;20022;-69
2021/08/29 07:58:40;;;;;;;;;;;20.40;99.90;;;;;;5010407;28;19975;-70
2021/08/29 08:01:06;;;;;;;;;;;20.40;99.90;;;;;;5010680;28;19921;-68
2021/08/29 08:03:31;;;;;;;;;;;20.20;99.90;;;;;;5010098;28;19917;-69
2021/08/29 08:05:57;;;;;;;;;;;20.10;99.90;;;;;;5009214;28;20004;-71
2021/08/29 08:08:23;;;;;;;;;;;20.30;99.90;;;;;;5012603;28;19921;-69
2021/08/29 08:10:48;;;;;;;;;;;20.30;99.90;;;;;;5008086;28;19909;-69
2021/08/29 08:13:14;;;;;;;;;;;20.30;99.90;;;;;;5011274;28;19913;-70
2021/08/29 08:15:40;;;;;;;;;;;20.40;99.90;;;;;;5008685;28;20400;-70
2021/08/29 08:18:05;;;;;;;;;;;20.60;99.90;;;;;;5010747;28;19909;-70
2021/08/29 08:20:31;;;;;;;;;;;20.70;99.90;;;;;;5009769;28;20043;-68
2021/08/29 08:22:56;;;;;;;;;;;20.80;99.90;;;;;;5009600;28;19915;-68
2021/08/29 08:25:22;;;;;;;;;;;20.90;99.90;;;;;;5007781;28;19913;-69
2021/08/29 08:27:48;;;;;;;;;;;20.80;99.90;;;;;;5008560;28;19941;-69
2021/08/29 08:30:15;;;;;;;;;;;20.40;99.90;;;;;;5006231;28;19909;-69
2021/08/29 08:32:45;;;;;;;;;;;20.40;99.90;;;;;;5011833;28;19916;-70
2021/08/29 08:35:11;;;;;;;;;;;20.40;99.90;;;;;;5010504;28;19924;-68
2021/08/29 08:37:36;;;;;;;;;;;20.60;99.90;;;;;;5009949;28;19909;-69
2021/08/29 08:40:03;;;;;;;;;;;20.60;99.90;;;;;;5025167;28;20016;-69
2021/08/29 08:42:29;;;;;;;;;;;20.60;99.90;;;;;;5011651;28;19909;-70
2021/08/29 08:44:56;;;;;;;;;;;20.60;99.90;;;;;;5007560;28;19927;-68
2021/08/29 08:47:22;;;;;;;;;;;20.70;99.90;;;;;;5009990;28;20008;-69
2021/08/29 08:49:48;;;;;;;;;;;20.80;99.90;;;;;;5009050;28;19913;-69
2021/08/29 08:52:18;;;;;;;;;;;20.70;99.90;;;;;;5009994;28;19905;-71
2021/08/29 08:54:45;;;;;;;;;;;20.80;99.90;;;;;;5010623;28;19913;-69
2021/08/29 08:57:13;;;;;;;;;;;20.70;99.90;;;;;;5008689;28;19921;-69
2021/08/29 08:59:41;;;;;;;;;;;20.80;99.90;;;;;;5012048;28;19948;-70
2021/08/29 09:02:07;;;;;;;;;;;20.90;99.90;;;;;;5012262;28;19920;-69
2021/08/29 09:04:33;;;;;;;;;;;20.90;99.90;;;;;;5016275;28;19905;-70
2021/08/29 09:06:59;;;;;;;;;;;20.80;99.90;;;;;;5009589;28;19909;-68
2021/08/29 09:09:25;;;;;;;;;;;20.90;99.90;;;;;;5010315;28;19909;-68
2021/08/29 09:11:50;;;;;;;;;;;21.10;99.90;;;;;;5010173;28;19918;-69
2021/08/29 09:14:16;;;;;;;;;;;21.50;99.90;;;;;;5010112;28;20265;-68
2021/08/29 09:16:49;;;;;;;;;;;21.30;99.90;;;;;;5010141;28;19909;-69
2021/08/29 09:19:17;;;;;;;;;;;21.30;99.90;;;;;;5001906;28;20052;-69
2021/08/29 09:21:42;;;;;;;;;;;21.40;99.90;;;;;;5009365;28;19968;-68
2021/08/29 09:24:10;;;;;;;;;;;21.40;99.90;;;;;;5009382;28;20132;-69
2021/08/29 09:26:39;;;;;;;;;;;21.40;99.90;;;;;;5010650;28;20001;-69
2021/08/29 09:29:06;;;;;;;;;;;21.60;99.90;;;;;;4992775;28;19931;-68
2021/08/29 09:31:45;;;;;;;;;;;21.70;99.90;;;;;;5008769;28;19913;-69
2021/08/29 09:34:10;;;;;;;;;;;21.60;99.90;;;;;;5010384;28;19905;-69
2021/08/29 09:36:38;;;;;;;;;;;21.50;99.90;;;;;;5008882;28;19909;-69
2021/08/29 09:39:10;;;;;;;;;;;21.60;99.90;;;;;;5006518;28;19967;-69
2021/08/29 09:41:35;;;;;;;;;;;21.30;99.90;;;;;;5011130;28;19921;-68
2021/08/29 09:44:05;;;;;;;;;;;21.20;99.90;;;;;;5009788;28;19962;-68
2021/08/29 09:46:30;;;;;;;;;;;21.20;99.90;;;;;;5004155;28;19941;-69
2021/08/29 09:48:56;;;;;;;;;;;21.40;99.90;;;;;;5000879;28;19955;-68
2021/08/29 09:51:24;;;;;;;;;;;21.60;99.90;;;;;;5009130;28;19921;-69
2021/08/29 09:53:49;;;;;;;;;;;21.60;99.90;;;;;;5009464;28;19917;-69
2021/08/29 09:56:19;;;;;;;;;;;21.50;99.90;;;;;;5011090;28;20318;-69
2021/08/29 09:58:45;;;;;;;;;;;21.60;99.90;;;;;;5009660;28;19905;-69
2021/08/29 10:01:12;;;;;;;;;;;21.80;99.90;;;;;;5009423;28;19935;-71
2021/08/29 10:03:40;;;;;;;;;;;21.80;99.90;;;;;;5010993;28;20382;-69
2021/08/29 10:06:14;;;;;;;;;;;21.90;99.90;;;;;;5008866;28;20030;-68
2021/08/29 10:08:43;;;;;;;;;;;22.00;99.90;;;;;;5010796;28;19905;-69
2021/08/29 10:11:09;;;;;;;;;;;22.00;99.90;;;;;;5010298;28;19985;-68
2021/08/29 10:13:35;;;;;;;;;;;22.00;99.90;;;;;;5012321;28;20012;-68
2021/08/29 10:16:03;;;;;;;;;;;22.00;99.90;;;;;;5014241;28;19914;-68
2021/08/29 10:18:30;;;;;;;;;;;22.20;99.90;;;;;;5012664;28;19913;-70
2021/08/29 10:20:56;;;;;;;;;;;22.40;99.90;;;;;;5012436;28;20018;-69
2021/08/29 10:23:22;;;;;;;;;;;22.20;99.90;;;;;;5012883;28;19909;-70
2021/08/29 10:25:49;;;;;;;;;;;22.40;99.90;;;;;;5012945;28;20425;-70
2021/08/29 10:28:15;;;;;;;;;;;22.50;99.90;;;;;;5005167;28;20364;-69
2021/08/29 10:30:42;;;;;;;;;;;22.50;99.90;;;;;;5013197;28;19921;-68
2021/08/29 10:33:08;;;;;;;;;;;22.50;99.90;;;;;;5010035;28;19968;-69
2021/08/29 10:35:34;;;;;;;;;;;22.50;99.90;;;;;;5000562;28;20257;-69
2021/08/29 10:38:00;;;;;;;;;;;22.30;99.90;;;;;;5013049;28;19917;-69
2021/08/29 10:40:26;;;;;;;;;;;21.90;99.90;;;;;;5013139;28;19906;-68
2021/08/29 10:42:53;;;;;;;;;;;21.80;99.90;;;;;;5013250;28;19937;-71
2021/08/29 10:45:19;;;;;;;;;;;21.90;99.90;;;;;;5012241;28;19909;-71
2021/08/29 10:47:45;;;;;;;;;;;21.90;99.90;;;;;;5013400;28;19905;-69
2021/08/29 10:50:16;;;;;;;;;;;22.00;99.90;;;;;;5011730;28;19910;-70
2021/08/29 10:52:42;;;;;;;;;;;22.20;99.90;;;;;;5014357;28;19996;-68
2021/08/29 10:55:09;;;;;;;;;;;22.40;99.90;;;;;;5012113;28;20411;-68
2021/08/29 10:57:38;;;;;;;;;;;22.50;99.90;;;;;;5011435;28;19917;-69
2021/08/29 11:00:13;;;;;;;;;;;22.50;99.90;;;;;;5014313;28;19960;-69
2021/08/29 11:02:42;;;;;;;;;;;22.40;99.90;;;;;;5013298;28;19949;-71
2021/08/29 11:05:09;;;;;;;;;;;22.40;99.90;;;;;;5014027;28;20360;-68
2021/08/29 11:07:36;;;;;;;;;;;22.40;99.90;;;;;;5014014;28;19905;-71
2021/08/29 11:10:02;;;;;;;;;;;22.10;99.90;;;;;;5013578;28;20360;-69
2021/08/29 11:12:28;;;;;;;;;;;22.10;99.90;;;;;;5013002;28;20000;-70
2021/08/29 11:14:54;;;;;;;;;;;22.00;99.90;;;;;;5013549;28;19916;-70
2021/08/29 11:17:20;;;;;;;;;;;21.90;99.90;;;;;;5010990;28;19944;-69
2021/08/29 11:19:47;;;;;;;;;;;22.00;99.90;;;;;;5012712;28;19960;-70
2021/08/29 11:22:13;;;;;;;;;;;22.10;99.90;;;;;;5012117;28;19916;-69
2021/08/29 11:24:50;;;;;;;;;;;22.40;99.90;;;;;;5010733;28;19976;-70
2021/08/29 11:27:33;;;;;;;;;;;22.60;99.90;;;;;;5002747;28;19905;-70
2021/08/29 11:30:05;;;;;;;;;;;22.70;99.90;;;;;;5010419;28;20012;-69
2021/08/29 11:32:36;;;;;;;;;;;22.90;99.90;;;;;;5012685;28;20322;-69
2021/08/29 11:35:09;;;;;;;;;;;22.90;99.90;;;;;;5011987;28;19909;-70
2021/08/29 11:37:34;;;;;;;;;;;22.90;99.90;;;;;;5011113;28;20387;-70
2021/08/29 11:40:04;;;;;;;;;;;23.10;99.90;;;;;;5011356;28;19909;-70
2021/08/29 11:42:30;;;;;;;;;;;23.10;99.90;;;;;;5011338;28;19959;-69
2021/08/29 11:44:56;;;;;;;;;;;23.00;99.90;;;;;;5011990;28;19917;-70
2021/08/29 11:47:35;;;;;;;;;;;23.20;99.90;;;;;;5009924;28;19913;-69
2021/08/29 11:50:02;;;;;;;;;;;23.30;99.90;;;;;;4997424;28;19909;-71
2021/08/29 11:52:32;;;;;;;;;;;23.20;99.90;;;;;;5006463;28;20395;-69
2021/08/29 11:55:08;;;;;;;;;;;23.50;99.90;;;;;;5007444;28;20107;-70
2021/08/29 11:57:47;;;;;;;;;;;23.80;99.90;;;;;;5011668;28;19956;-72
2021/08/29 12:00:13;;;;;;;;;;;23.60;99.90;;;;;;5011377;28;19916;-70
2021/08/29 12:02:41;;;;;;;;;;;23.60;99.90;;;;;;5011967;28;19989;-70
2021/08/29 12:05:08;;;;;;;;;;;23.90;99.90;;;;;;4998152;28;19956;-69
2021/08/29 12:07:36;;;;;;;;;;;24.10;99.90;;;;;;5010049;28;19916;-70
2021/08/29 12:10:01;;;;;;;;;;;24.40;99.90;;;;;;5005857;28;19921;-71
2021/08/29 12:12:27;;;;;;;;;;;24.80;99.90;;;;;;5010468;28;19910;-69
2021/08/29 12:14:53;;;;;;;;;;;25.30;99.90;;;;;;5009319;28;20371;-69
2021/08/29 12:17:18;;;;;;;;;;;25.40;99.90;;;;;;5010550;28;19906;-70
2021/08/29 12:19:44;;;;;;;;;;;25.00;99.90;;;;;;5001465;28;20004;-70
2021/08/29 12:22:12;;;;;;;;;;;24.40;99.90;;;;;;5009486;28;19913;-71
2021/08/29 12:24:39;;;;;;;;;;;23.80;99.90;;;;;;5009111;28;19909;-70
2021/08/29 12:27:11;;;;;;;;;;;23.40;99.90;;;;;;5009376;28;19913;-69
2021/08/29 12:29:45;;;;;;;;;;;23.20;99.90;;;;;;5004191;28;20372;-70
2021/08/29 12:32:12;;;;;;;;;;;23.10;99.90;;;;;;5011925;28;19905;-70
2021/08/29 12:34:38;;;;;;;;;;;23.20;99.90;;;;;;5010740;28;20378;-70
2021/08/29 12:37:08;;;;;;;;;;;23.30;99.90;;;;;;5006773;28;19918;-70
2021/08/29 12:39:34;;;;;;;;;;;23.30;99.90;;;;;;5011105;28;19909;-71
2021/08/29 12:42:32;;;;;;;;;;;23.10;99.90;;;;;;4995142;28;20017;-71
2021/08/29 12:45:01;;;;;;;;;;;23.10;99.90;;;;;;5012382;28;19913;-68
2021/08/29 12:47:35;;;;;;;;;;;22.80;99.90;;;;;;5009990;28;20020;-70
2021/08/29 12:50:07;;;;;;;;;;;22.60;99.90;;;;;;5009539;28;19909;-71
2021/08/29 12:52:39;;;;;;;;;;;22.90;99.90;;;;;;5006826;28;19910;-71
2021/08/29 12:55:18;;;;;;;;;;;23.40;99.90;;;;;;5007709;28;19910;-70
2021/08/29 12:57:45;;;;;;;;;;;23.70;99.90;;;;;;5003253;28;19917;-71
2021/08/29 13:00:18;;;;;;;;;;;24.30;99.90;;;;;;5012323;28;20385;-71
2021/08/29 13:02:49;;;;;;;;;;;24.50;99.90;;;;;;4999078;28;20288;-74
2021/08/29 13:05:15;;;;;;;;;;;24.50;99.90;;;;;;5021358;28;19909;-69
2021/08/29 13:07:51;;;;;;;;;;;24.50;99.90;;;;;;5008241;28;19920;-70
2021/08/29 13:10:17;;;;;;;;;;;24.40;99.90;;;;;;5007967;28;20007;-69
2021/08/29 13:12:43;;;;;;;;;;;24.40;99.90;;;;;;5006734;28;20002;-71
2021/08/29 13:15:09;;;;;;;;;;;24.30;99.90;;;;;;5010073;28;20612;-69
2021/08/29 13:17:43;;;;;;;;;;;24.70;99.90;;;;;;5010740;28;20339;-69
2021/08/29 13:20:08;;;;;;;;;;;24.80;99.90;;;;;;5014536;28;20367;-70
2021/08/29 13:22:38;;;;;;;;;;;24.70;99.90;;;;;;5013049;28;19913;-69
2021/08/29 13:25:20;;;;;;;;;;;24.40;99.90;;;;;;5011092;28;20533;-68
2021/08/29 13:27:47;;;;;;;;;;;23.50;99.90;;;;;;5008249;28;19909;-71
2021/08/29 13:30:17;;;;;;;;;;;21.80;99.90;;;;;;5009898;28;19920;-70
2021/08/29 13:32:43;;;;;;;;;;;20.80;99.90;;;;;;5010177;28;19910;-69
2021/08/29 13:35:09;;;;;;;;;;;20.00;99.90;;;;;;5010363;28;20327;-69
2021/08/29 13:37:35;;;;;;;;;;;19.60;99.90;;;;;;5010683;28;19906;-69
2021/08/29 13:40:04;;;;;;;;;;;19.40;99.90;;;;;;5009161;28;19967;-69
2021/08/29 13:42:30;;;;;;;;;;;19.10;99.90;;;;;;5008846;28;19913;-70
2021/08/29 13:44:56;;;;;;;;;;;18.70;99.90;;;;;;5009666;28;19913;-68
2021/08/29 13:47:22;;;;;;;;;;;18.10;99.90;;;;;;5009657;28;19920;-69
2021/08/29 13:49:49;;;;;;;;;;;17.60;99.90;;;;;;5012677;28;20383;-69
2021/08/29 13:52:21;;;;;;;;;;;17.40;99.90;;;;;;5014174;28;19953;-67
2021/08/29 13:54:47;;;;;;;;;;;17.20;99.90;;;;;;5013943;28;19963;-70
2021/08/29 13:57:13;;;;;;;;;;;17.10;99.90;;;;;;5022126;28;19906;-65
2021/08/29 13:59:38;;;;;;;;;;;17.10;99.90;;;;;;5019762;28;20264;-67
2021/08/29 14:02:04;;;;;;;;;;;17.00;99.90;;;;;;5010665;28;19913;-68
2021/08/29 14:04:30;;;;;;;;;;;17.00;99.90;;;;;;5012980;28;20019;-70
2021/08/29 14:06:55;;;;;;;;;;;17.10;99.90;;;;;;5011483;28;19913;-71
2021/08/29 14:09:21;;;;;;;;;;;17.20;99.90;;;;;;5011851;28;19935;-68
2021/08/29 14:11:46;;;;;;;;;;;17.50;99.90;;;;;;5013194;28;20407;-68
2021/08/29 14:14:12;;;;;;;;;;;18.20;99.90;;;;;;5016160;28;19909;-69